West Chesterfield, New Hampshire
Current Conditions -  °F | °C
As of 12:55 PM on Friday 24 Oct 2014 (Local Time) from KEEN Reporting Station
Overcast Overcast  
Wind Chill: 45°   Ceiling: 1800
Heat Index: 48°   Visibility: 10mi
Dew Point: 37°   Wind: 7mph
Humidity: 66%   Direction: 350°N
Pressure: 29.75"   Gusts: NA
Location:  42.9°N, 72.52°W
Report Text: KEEN 241655Z AUTO 35006KT 10SM OVC018 09/03 A2975 RMK AO1
Loading
Personal Weather Stations






























Interactive Weather Map
Tropical Storm Tracking
New forecast layout! Learn more

10-Day Weather Forecast

Advertisements
Track Severe Weather on mobile